sensor_id;sensor_type;location;lat;lon;timestamp;temperature;humidity
75372;HTU21D;63956;52.006;5.878;2023-02-28T00:01:56;1.32;64.24
75372;HTU21D;63956;52.006;5.878;2023-02-28T00:04:25;1.33;64.25
75372;HTU21D;63956;52.006;5.878;2023-02-28T00:06:54;1.35;64.30
75372;HTU21D;63956;52.006;5.878;2023-02-28T00:09:23;1.37;64.31
75372;HTU21D;63956;52.006;5.878;2023-02-28T00:11:52;1.39;64.32
75372;HTU21D;63956;52.006;5.878;2023-02-28T00:14:21;1.41;64.37
75372;HTU21D;63956;52.006;5.878;2023-02-28T00:16:53;1.42;64.37
75372;HTU21D;63956;52.006;5.878;2023-02-28T00:19:22;1.45;64.39
75372;HTU21D;63956;52.006;5.878;2023-02-28T00:21:51;1.49;63.94
75372;HTU21D;63956;52.006;5.878;2023-02-28T00:24:20;1.46;64.29
75372;HTU21D;63956;52.006;5.878;2023-02-28T00:26:49;1.47;64.40
75372;HTU21D;63956;52.006;5.878;2023-02-28T00:29:18;1.51;64.55
75372;HTU21D;63956;52.006;5.878;2023-02-28T00:31:47;1.53;64.51
75372;HTU21D;63956;52.006;5.878;2023-02-28T00:34:19;1.53;64.69
75372;HTU21D;63956;52.006;5.878;2023-02-28T00:36:48;1.55;64.69
75372;HTU21D;63956;52.006;5.878;2023-02-28T00:39:17;1.58;64.68
75372;HTU21D;63956;52.006;5.878;2023-02-28T00:41:48;1.61;64.74
75372;HTU21D;63956;52.006;5.878;2023-02-28T00:44:17;1.65;64.78
75372;HTU21D;63956;52.006;5.878;2023-02-28T00:46:47;1.68;64.79
75372;HTU21D;63956;52.006;5.878;2023-02-28T00:49:20;1.70;64.77
75372;HTU21D;63956;52.006;5.878;2023-02-28T00:51:49;1.73;64.92
75372;HTU21D;63956;52.006;5.878;2023-02-28T00:54:19;1.75;64.85
75372;HTU21D;63956;52.006;5.878;2023-02-28T00:56:48;1.81;64.34
75372;HTU21D;63956;52.006;5.878;2023-02-28T00:59:18;1.80;64.68
75372;HTU21D;63956;52.006;5.878;2023-02-28T01:01:47;1.81;64.72
75372;HTU21D;63956;52.006;5.878;2023-02-28T01:04:17;1.82;64.85
75372;HTU21D;63956;52.006;5.878;2023-02-28T01:06:48;1.85;64.90
75372;HTU21D;63956;52.006;5.878;2023-02-28T01:09:17;1.88;64.84
75372;HTU21D;63956;52.006;5.878;2023-02-28T01:11:47;1.92;64.93
75372;HTU21D;63956;52.006;5.878;2023-02-28T01:14:17;1.93;64.88
75372;HTU21D;63956;52.006;5.878;2023-02-28T01:16:46;1.95;64.79
75372;HTU21D;63956;52.006;5.878;2023-02-28T01:19:15;1.98;64.99
75372;HTU21D;63956;52.006;5.878;2023-02-28T01:21:49;1.99;64.88
75372;HTU21D;63956;52.006;5.878;2023-02-28T01:24:18;2.02;64.92
75372;HTU21D;63956;52.006;5.878;2023-02-28T01:26:47;2.06;64.84
75372;HTU21D;63956;52.006;5.878;2023-02-28T01:29:16;2.09;64.92
75372;HTU21D;63956;52.006;5.878;2023-02-28T01:31:45;2.10;64.98
75372;HTU21D;63956;52.006;5.878;2023-02-28T01:34:14;2.12;65.00
75372;HTU21D;63956;52.006;5.878;2023-02-28T01:36:47;2.15;64.94
75372;HTU21D;63956;52.006;5.878;2023-02-28T01:39:18;2.16;65.01
75372;HTU21D;63956;52.006;5.878;2023-02-28T01:41:47;2.23;64.62
75372;HTU21D;63956;52.006;5.878;2023-02-28T01:47:29;2.21;64.95
75372;HTU21D;63956;52.006;5.878;2023-02-28T01:50:01;2.23;64.94
75372;HTU21D;63956;52.006;5.878;2023-02-28T01:52:34;2.23;64.98
75372;HTU21D;63956;52.006;5.878;2023-02-28T01:55:06;2.26;65.04
75372;HTU21D;63956;52.006;5.878;2023-02-28T01:57:38;2.28;65.14
75372;HTU21D;63956;52.006;5.878;2023-02-28T02:00:11;2.31;65.12
75372;HTU21D;63956;52.006;5.878;2023-02-28T02:02:49;2.35;65.13
75372;HTU21D;63956;52.006;5.878;2023-02-28T02:05:23;2.36;65.08
75372;HTU21D;63956;52.006;5.878;2023-02-28T02:07:57;2.39;65.14
75372;HTU21D;63956;52.006;5.878;2023-02-28T02:10:30;2.40;65.21
75372;HTU21D;63956;52.006;5.878;2023-02-28T02:13:11;2.43;65.17
75372;HTU21D;63956;52.006;5.878;2023-02-28T02:15:49;2.45;65.17
75372;HTU21D;63956;52.006;5.878;2023-02-28T02:18:28;2.46;65.21
75372;HTU21D;63956;52.006;5.878;2023-02-28T02:24:46;2.52;65.11
75372;HTU21D;63956;52.006;5.878;2023-02-28T02:27:26;2.52;65.11
75372;HTU21D;63956;52.006;5.878;2023-02-28T02:33:05;2.54;65.33
75372;HTU21D;63956;52.006;5.878;2023-02-28T02:35:43;2.56;65.25
75372;HTU21D;63956;52.006;5.878;2023-02-28T02:38:22;2.56;65.35
75372;HTU21D;63956;52.006;5.878;2023-02-28T02:40:58;2.58;65.39
75372;HTU21D;63956;52.006;5.878;2023-02-28T02:43:35;2.61;65.28
75372;HTU21D;63956;52.006;5.878;2023-02-28T02:46:10;2.62;65.37
75372;HTU21D;63956;52.006;5.878;2023-02-28T02:48:45;2.65;65.42
75372;HTU21D;63956;52.006;5.878;2023-02-28T02:51:20;2.68;65.36
75372;HTU21D;63956;52.006;5.878;2023-02-28T02:53:55;2.68;65.50
75372;HTU21D;63956;52.006;5.878;2023-02-28T02:56:28;2.68;65.50
75372;HTU21D;63956;52.006;5.878;2023-02-28T02:59:01;2.72;65.46
75372;HTU21D;63956;52.006;5.878;2023-02-28T03:01:32;2.73;65.56
75372;HTU21D;63956;52.006;5.878;2023-02-28T03:04:08;2.74;65.64
75372;HTU21D;63956;52.006;5.878;2023-02-28T03:06:41;2.78;65.59
75372;HTU21D;63956;52.006;5.878;2023-02-28T03:09:10;2.81;65.57
75372;HTU21D;63956;52.006;5.878;2023-02-28T03:11:40;2.81;65.88
75372;HTU21D;63956;52.006;5.878;2023-02-28T03:14:28;2.83;65.58
75372;HTU21D;63956;52.006;5.878;2023-02-28T03:17:20;2.85;65.57
75372;HTU21D;63956;52.006;5.878;2023-02-28T03:20:01;2.86;65.64
75372;HTU21D;63956;52.006;5.878;2023-02-28T03:22:43;2.85;65.72
75372;HTU21D;63956;52.006;5.878;2023-02-28T03:25:20;2.87;65.82
75372;HTU21D;63956;52.006;5.878;2023-02-28T03:27:53;2.91;65.39
75372;HTU21D;63956;52.006;5.878;2023-02-28T03:30:29;2.87;65.59
75372;HTU21D;63956;52.006;5.878;2023-02-28T03:33:05;2.86;65.72
75372;HTU21D;63956;52.006;5.878;2023-02-28T03:35:37;2.87;65.70
75372;HTU21D;63956;52.006;5.878;2023-02-28T03:38:13;2.88;65.72
75372;HTU21D;63956;52.006;5.878;2023-02-28T03:40:47;2.91;65.82
75372;HTU21D;63956;52.006;5.878;2023-02-28T03:43:22;2.91;65.78
75372;HTU21D;63956;52.006;5.878;2023-02-28T03:45:53;2.93;65.78
75372;HTU21D;63956;52.006;5.878;2023-02-28T03:48:30;2.93;65.78
75372;HTU21D;63956;52.006;5.878;2023-02-28T03:51:02;2.93;65.79
75372;HTU21D;63956;52.006;5.878;2023-02-28T03:53:36;2.94;65.79
75372;HTU21D;63956;52.006;5.878;2023-02-28T03:56:11;2.97;65.75
75372;HTU21D;63956;52.006;5.878;2023-02-28T03:58:47;2.97;65.74
75372;HTU21D;63956;52.006;5.878;2023-02-28T04:01:18;3.01;65.46
75372;HTU21D;63956;52.006;5.878;2023-02-28T04:03:49;2.98;65.60
75372;HTU21D;63956;52.006;5.878;2023-02-28T04:06:20;2.98;65.69
75372;HTU21D;63956;52.006;5.878;2023-02-28T04:08:52;2.98;65.69
75372;HTU21D;63956;52.006;5.878;2023-02-28T04:11:25;3.00;65.74
75372;HTU21D;63956;52.006;5.878;2023-02-28T04:13:55;3.01;65.66
75372;HTU21D;63956;52.006;5.878;2023-02-28T04:16:24;3.02;65.66
75372;HTU21D;63956;52.006;5.878;2023-02-28T04:18:54;3.02;65.63
75372;HTU21D;63956;52.006;5.878;2023-02-28T04:21:29;3.06;65.42
75372;HTU21D;63956;52.006;5.878;2023-02-28T04:24:01;3.03;65.47
75372;HTU21D;63956;52.006;5.878;2023-02-28T04:26:30;3.02;65.54
75372;HTU21D;63956;52.006;5.878;2023-02-28T04:28:59;3.05;65.35
75372;HTU21D;63956;52.006;5.878;2023-02-28T04:31:28;3.02;65.53
75372;HTU21D;63956;52.006;5.878;2023-02-28T04:33:58;3.01;65.67
75372;HTU21D;63956;52.006;5.878;2023-02-28T04:36:27;3.02;65.67
75372;HTU21D;63956;52.006;5.878;2023-02-28T04:38:59;3.03;65.71
75372;HTU21D;63956;52.006;5.878;2023-02-28T04:41:30;3.05;65.61
75372;HTU21D;63956;52.006;5.878;2023-02-28T04:43:59;3.06;65.60
75372;HTU21D;63956;52.006;5.878;2023-02-28T04:46:28;3.08;65.53
75372;HTU21D;63956;52.006;5.878;2023-02-28T04:48:57;3.10;65.58
75372;HTU21D;63956;52.006;5.878;2023-02-28T04:51:26;3.09;65.62
75372;HTU21D;63956;52.006;5.878;2023-02-28T04:53:56;3.09;65.72
75372;HTU21D;63956;52.006;5.878;2023-02-28T04:56:28;3.09;65.82
75372;HTU21D;63956;52.006;5.878;2023-02-28T04:58:58;3.09;65.83
75372;HTU21D;63956;52.006;5.878;2023-02-28T05:01:28;3.11;65.80
75372;HTU21D;63956;52.006;5.878;2023-02-28T05:03:59;3.09;65.60
75372;HTU21D;63956;52.006;5.878;2023-02-28T05:06:30;3.08;65.79
75372;HTU21D;63956;52.006;5.878;2023-02-28T05:09:00;3.10;65.71
75372;HTU21D;63956;52.006;5.878;2023-02-28T05:11:33;3.12;65.50
75372;HTU21D;63956;52.006;5.878;2023-02-28T05:14:03;3.10;65.66
75372;HTU21D;63956;52.006;5.878;2023-02-28T05:16:33;3.06;65.69
75372;HTU21D;63956;52.006;5.878;2023-02-28T05:19:03;3.08;65.72
75372;HTU21D;63956;52.006;5.878;2023-02-28T05:21:33;3.08;65.84
75372;HTU21D;63956;52.006;5.878;2023-02-28T05:24:05;3.08;65.85
75372;HTU21D;63956;52.006;5.878;2023-02-28T05:26:39;3.09;65.90
75372;HTU21D;63956;52.006;5.878;2023-02-28T05:29:09;3.09;65.99
75372;HTU21D;63956;52.006;5.878;2023-02-28T05:31:39;3.09;65.89
75372;HTU21D;63956;52.006;5.878;2023-02-28T05:34:08;3.08;65.98
75372;HTU21D;63956;52.006;5.878;2023-02-28T05:36:39;3.09;65.85
75372;HTU21D;63956;52.006;5.878;2023-02-28T05:39:08;3.09;65.73
75372;HTU21D;63956;52.006;5.878;2023-02-28T05:41:43;3.10;65.83
75372;HTU21D;63956;52.006;5.878;2023-02-28T05:44:12;3.09;65.65
75372;HTU21D;63956;52.006;5.878;2023-02-28T05:46:41;3.10;65.80
75372;HTU21D;63956;52.006;5.878;2023-02-28T05:49:10;3.10;65.86
75372;HTU21D;63956;52.006;5.878;2023-02-28T05:51:39;3.10;65.88
75372;HTU21D;63956;52.006;5.878;2023-02-28T05:54:08;3.11;65.87
75372;HTU21D;63956;52.006;5.878;2023-02-28T05:56:37;3.11;65.77
75372;HTU21D;63956;52.006;5.878;2023-02-28T05:59:12;3.12;65.83
75372;HTU21D;63956;52.006;5.878;2023-02-28T06:01:43;3.13;65.75
75372;HTU21D;63956;52.006;5.878;2023-02-28T06:04:15;3.14;65.78
75372;HTU21D;63956;52.006;5.878;2023-02-28T06:06:45;3.14;65.82
75372;HTU21D;63956;52.006;5.878;2023-02-28T06:09:14;3.14;65.89
75372;HTU21D;63956;52.006;5.878;2023-02-28T06:11:43;3.13;65.87
75372;HTU21D;63956;52.006;5.878;2023-02-28T06:14:17;3.12;65.86
75372;HTU21D;63956;52.006;5.878;2023-02-28T06:16:47;3.13;65.66
75372;HTU21D;63956;52.006;5.878;2023-02-28T06:19:16;3.13;65.78
75372;HTU21D;63956;52.006;5.878;2023-02-28T06:21:49;3.13;65.80
75372;HTU21D;63956;52.006;5.878;2023-02-28T06:24:18;3.13;65.82
75372;HTU21D;63956;52.006;5.878;2023-02-28T06:26:47;3.16;65.62
75372;HTU21D;63956;52.006;5.878;2023-02-28T06:29:19;3.12;65.79
75372;HTU21D;63956;52.006;5.878;2023-02-28T06:31:48;3.11;65.91
75372;HTU21D;63956;52.006;5.878;2023-02-28T06:34:17;3.12;65.90
75372;HTU21D;63956;52.006;5.878;2023-02-28T06:36:46;3.12;65.88
75372;HTU21D;63956;52.006;5.878;2023-02-28T06:39:15;3.12;65.94
75372;HTU21D;63956;52.006;5.878;2023-02-28T06:41:44;3.13;65.91
75372;HTU21D;63956;52.006;5.878;2023-02-28T06:44:21;3.14;65.98
75372;HTU21D;63956;52.006;5.878;2023-02-28T06:46:50;3.16;65.97
75372;HTU21D;63956;52.006;5.878;2023-02-28T06:49:19;3.23;65.67
75372;HTU21D;63956;52.006;5.878;2023-02-28T06:51:48;3.18;65.75
75372;HTU21D;63956;52.006;5.878;2023-02-28T06:54:17;3.18;65.85
75372;HTU21D;63956;52.006;5.878;2023-02-28T06:56:46;3.18;65.89
75372;HTU21D;63956;52.006;5.878;2023-02-28T06:59:16;3.18;65.97
75372;HTU21D;63956;52.006;5.878;2023-02-28T07:01:47;3.24;65.70
75372;HTU21D;63956;52.006;5.878;2023-02-28T07:04:16;3.20;65.88
75372;HTU21D;63956;52.006;5.878;2023-02-28T07:06:45;3.21;65.91
75372;HTU21D;63956;52.006;5.878;2023-02-28T07:09:14;3.23;65.98
75372;HTU21D;63956;52.006;5.878;2023-02-28T07:11:45;3.24;65.98
75372;HTU21D;63956;52.006;5.878;2023-02-28T07:14:14;3.25;66.02
75372;HTU21D;63956;52.006;5.878;2023-02-28T07:16:43;3.26;65.98
75372;HTU21D;63956;52.006;5.878;2023-02-28T07:19:15;3.28;65.99
75372;HTU21D;63956;52.006;5.878;2023-02-28T07:21:44;3.30;65.91
75372;HTU21D;63956;52.006;5.878;2023-02-28T07:24:13;3.34;65.85
75372;HTU21D;63956;52.006;5.878;2023-02-28T07:26:44;3.35;65.65
75372;HTU21D;63956;52.006;5.878;2023-02-28T07:29:13;3.38;65.45
75372;HTU21D;63956;52.006;5.878;2023-02-28T07:31:42;3.39;65.40
75372;HTU21D;63956;52.006;5.878;2023-02-28T07:34:15;3.41;65.48
75372;HTU21D;63956;52.006;5.878;2023-02-28T07:36:44;3.44;65.41
75372;HTU21D;63956;52.006;5.878;2023-02-28T07:39:13;3.46;65.27
75372;HTU21D;63956;52.006;5.878;2023-02-28T07:41:42;3.47;65.33
75372;HTU21D;63956;52.006;5.878;2023-02-28T07:44:11;3.53;65.32
75372;HTU21D;63956;52.006;5.878;2023-02-28T07:46:40;3.50;65.17
75372;HTU21D;63956;52.006;5.878;2023-02-28T07:49:09;3.56;65.22
75372;HTU21D;63956;52.006;5.878;2023-02-28T07:51:41;3.54;64.38
75372;HTU21D;63956;52.006;5.878;2023-02-28T07:54:10;3.54;64.58
75372;HTU21D;63956;52.006;5.878;2023-02-28T07:56:39;3.57;64.42
75372;HTU21D;63956;52.006;5.878;2023-02-28T07:59:08;3.58;64.42
75372;HTU21D;63956;52.006;5.878;2023-02-28T08:01:37;3.67;64.58
75372;HTU21D;63956;52.006;5.878;2023-02-28T08:04:06;3.64;63.92
75372;HTU21D;63956;52.006;5.878;2023-02-28T08:06:35;3.65;63.89
75372;HTU21D;63956;52.006;5.878;2023-02-28T08:09:07;3.63;63.56
75372;HTU21D;63956;52.006;5.878;2023-02-28T08:11:37;3.65;63.67
75372;HTU21D;63956;52.006;5.878;2023-02-28T08:14:06;3.67;63.29
75372;HTU21D;63956;52.006;5.878;2023-02-28T08:16:35;3.68;62.98
75372;HTU21D;63956;52.006;5.878;2023-02-28T08:19:04;3.69;63.02
75372;HTU21D;63956;52.006;5.878;2023-02-28T08:21:34;3.72;62.49
75372;HTU21D;63956;52.006;5.878;2023-02-28T08:24:03;3.78;61.97
75372;HTU21D;63956;52.006;5.878;2023-02-28T08:26:35;3.82;61.91
75372;HTU21D;63956;52.006;5.878;2023-02-28T08:29:04;3.87;61.00
75372;HTU21D;63956;52.006;5.878;2023-02-28T08:31:33;3.90;60.68
75372;HTU21D;63956;52.006;5.878;2023-02-28T08:34:05;3.95;60.99
75372;HTU21D;63956;52.006;5.878;2023-02-28T08:36:34;4.02;60.89
75372;HTU21D;63956;52.006;5.878;2023-02-28T08:39:03;4.07;60.59
75372;HTU21D;63956;52.006;5.878;2023-02-28T08:41:35;4.17;61.06
75372;HTU21D;63956;52.006;5.878;2023-02-28T08:44:04;4.17;59.39
75372;HTU21D;63956;52.006;5.878;2023-02-28T08:46:33;4.22;59.46
75372;HTU21D;63956;52.006;5.878;2023-02-28T08:49:02;4.29;58.93
75372;HTU21D;63956;52.006;5.878;2023-02-28T08:51:33;4.39;58.91
75372;HTU21D;63956;52.006;5.878;2023-02-28T08:54:02;4.56;57.30
75372;HTU21D;63956;52.006;5.878;2023-02-28T08:56:31;4.68;57.03
75372;HTU21D;63956;52.006;5.878;2023-02-28T08:59:02;4.82;56.78
75372;HTU21D;63956;52.006;5.878;2023-02-28T09:01:32;5.03;56.17
75372;HTU21D;63956;52.006;5.878;2023-02-28T09:04:02;5.21;55.97
75372;HTU21D;63956;52.006;5.878;2023-02-28T09:06:33;5.40;55.45
75372;HTU21D;63956;52.006;5.878;2023-02-28T09:09:02;5.57;56.39
75372;HTU21D;63956;52.006;5.878;2023-02-28T09:11:34;5.71;54.53
75372;HTU21D;63956;52.006;5.878;2023-02-28T09:14:06;5.83;54.28
75372;HTU21D;63956;52.006;5.878;2023-02-28T09:16:35;5.91;54.87
75372;HTU21D;63956;52.006;5.878;2023-02-28T09:19:04;5.98;55.35
75372;HTU21D;63956;52.006;5.878;2023-02-28T09:21:33;6.08;54.24
75372;HTU21D;63956;52.006;5.878;2023-02-28T09:24:03;6.16;53.65
75372;HTU21D;63956;52.006;5.878;2023-02-28T09:26:32;6.27;53.32
75372;HTU21D;63956;52.006;5.878;2023-02-28T09:29:01;6.35;52.63
75372;HTU21D;63956;52.006;5.878;2023-02-28T09:31:33;6.42;52.41
75372;HTU21D;63956;52.006;5.878;2023-02-28T09:34:03;6.48;51.45
75372;HTU21D;63956;52.006;5.878;2023-02-28T09:36:32;6.51;52.33
75372;HTU21D;63956;52.006;5.878;2023-02-28T09:39:02;6.57;50.56
75372;HTU21D;63956;52.006;5.878;2023-02-28T09:41:38;6.63;51.85
75372;HTU21D;63956;52.006;5.878;2023-02-28T09:44:20;6.68;51.16
75372;HTU21D;63956;52.006;5.878;2023-02-28T09:46:56;6.75;50.48
75372;HTU21D;63956;52.006;5.878;2023-02-28T09:49:33;6.83;50.34
75372;HTU21D;63956;52.006;5.878;2023-02-28T09:52:05;6.87;49.45
75372;HTU21D;63956;52.006;5.878;2023-02-28T09:54:36;6.90;49.74
75372;HTU21D;63956;52.006;5.878;2023-02-28T09:57:08;6.94;50.00
75372;HTU21D;63956;52.006;5.878;2023-02-28T09:59:45;7.00;49.28
75372;HTU21D;63956;52.006;5.878;2023-02-28T10:02:41;7.03;49.60
75372;HTU21D;63956;52.006;5.878;2023-02-28T10:05:15;7.05;48.24
75372;HTU21D;63956;52.006;5.878;2023-02-28T10:07:53;7.07;48.24
75372;HTU21D;63956;52.006;5.878;2023-02-28T10:10:30;7.11;49.14
75372;HTU21D;63956;52.006;5.878;2023-02-28T10:13:04;7.16;47.67
75372;HTU21D;63956;52.006;5.878;2023-02-28T10:15:35;7.20;47.65
75372;HTU21D;63956;52.006;5.878;2023-02-28T10:18:12;7.24;47.60
75372;HTU21D;63956;52.006;5.878;2023-02-28T10:20:42;7.27;47.10
75372;HTU21D;63956;52.006;5.878;2023-02-28T10:23:17;7.30;47.85
75372;HTU21D;63956;52.006;5.878;2023-02-28T10:25:54;7.35;46.96
75372;HTU21D;63956;52.006;5.878;2023-02-28T10:28:25;7.43;47.55
75372;HTU21D;63956;52.006;5.878;2023-02-28T10:30:55;7.49;47.54
75372;HTU21D;63956;52.006;5.878;2023-02-28T10:33:29;7.58;46.53
75372;HTU21D;63956;52.006;5.878;2023-02-28T10:36:00;7.61;46.93
75372;HTU21D;63956;52.006;5.878;2023-02-28T10:38:33;7.64;45.94
75372;HTU21D;63956;52.006;5.878;2023-02-28T10:41:07;7.64;45.67
75372;HTU21D;63956;52.006;5.878;2023-02-28T10:43:37;7.62;46.80
75372;HTU21D;63956;52.006;5.878;2023-02-28T10:46:13;7.59;46.29
75372;HTU21D;63956;52.006;5.878;2023-02-28T10:49:02;7.63;46.74
75372;HTU21D;63956;52.006;5.878;2023-02-28T10:51:37;7.62;46.23
75372;HTU21D;63956;52.006;5.878;2023-02-28T10:54:15;7.59;46.57
75372;HTU21D;63956;52.006;5.878;2023-02-28T10:56:44;7.57;46.02
75372;HTU21D;63956;52.006;5.878;2023-02-28T10:59:28;7.53;46.38
75372;HTU21D;63956;52.006;5.878;2023-02-28T11:01:57;7.53;46.44
75372;HTU21D;63956;52.006;5.878;2023-02-28T11:04:36;7.53;45.71
75372;HTU21D;63956;52.006;5.878;2023-02-28T11:07:16;7.55;45.83
75372;HTU21D;63956;52.006;5.878;2023-02-28T11:09:48;7.55;45.93
75372;HTU21D;63956;52.006;5.878;2023-02-28T11:12:23;7.56;45.51
75372;HTU21D;63956;52.006;5.878;2023-02-28T11:14:57;7.60;45.43
75372;HTU21D;63956;52.006;5.878;2023-02-28T11:17:28;7.64;45.08
75372;HTU21D;63956;52.006;5.878;2023-02-28T11:20:03;7.64;45.18
75372;HTU21D;63956;52.006;5.878;2023-02-28T11:22:38;7.65;44.97
75372;HTU21D;63956;52.006;5.878;2023-02-28T11:25:16;7.70;45.03
75372;HTU21D;63956;52.006;5.878;2023-02-28T11:27:49;7.75;45.03
75372;HTU21D;63956;52.006;5.878;2023-02-28T11:30:42;7.86;44.98
75372;HTU21D;63956;52.006;5.878;2023-02-28T11:33:27;7.93;44.92
75372;HTU21D;63956;52.006;5.878;2023-02-28T11:36:03;8.01;44.16
75372;HTU21D;63956;52.006;5.878;2023-02-28T11:38:34;8.09;43.42
75372;HTU21D;63956;52.006;5.878;2023-02-28T11:41:19;8.18;43.87
75372;HTU21D;63956;52.006;5.878;2023-02-28T11:46:47;8.37;44.27
75372;HTU21D;63956;52.006;5.878;2023-02-28T11:49:30;8.45;43.98
75372;HTU21D;63956;52.006;5.878;2023-02-28T11:52:10;8.52;43.66
75372;HTU21D;63956;52.006;5.878;2023-02-28T11:54:52;8.65;43.98
75372;HTU21D;63956;52.006;5.878;2023-02-28T11:57:34;8.73;43.25
75372;HTU21D;63956;52.006;5.878;2023-02-28T12:00:07;8.81;43.89
75372;HTU21D;63956;52.006;5.878;2023-02-28T12:02:54;8.82;43.36
75372;HTU21D;63956;52.006;5.878;2023-02-28T12:05:33;8.88;43.71
75372;HTU21D;63956;52.006;5.878;2023-02-28T12:08:20;8.98;43.12
75372;HTU21D;63956;52.006;5.878;2023-02-28T12:11:00;9.08;42.39
75372;HTU21D;63956;52.006;5.878;2023-02-28T12:13:41;9.16;42.52
75372;HTU21D;63956;52.006;5.878;2023-02-28T12:16:32;9.27;42.68
75372;HTU21D;63956;52.006;5.878;2023-02-28T12:19:12;9.40;42.34
75372;HTU21D;63956;52.006;5.878;2023-02-28T12:22:03;9.47;41.90
75372;HTU21D;63956;52.006;5.878;2023-02-28T12:24:58;9.50;42.38
75372;HTU21D;63956;52.006;5.878;2023-02-28T12:27:34;9.49;41.21
75372;HTU21D;63956;52.006;5.878;2023-02-28T12:30:13;9.45;41.36
75372;HTU21D;63956;52.006;5.878;2023-02-28T12:32:46;9.41;41.41
75372;HTU21D;63956;52.006;5.878;2023-02-28T12:35:19;9.46;42.30
75372;HTU21D;63956;52.006;5.878;2023-02-28T12:37:55;9.50;41.84
75372;HTU21D;63956;52.006;5.878;2023-02-28T12:40:33;9.50;41.47
75372;HTU21D;63956;52.006;5.878;2023-02-28T12:43:09;9.52;40.32
75372;HTU21D;63956;52.006;5.878;2023-02-28T12:45:42;9.50;40.61
75372;HTU21D;63956;52.006;5.878;2023-02-28T12:48:15;9.50;39.71
75372;HTU21D;63956;52.006;5.878;2023-02-28T12:50:48;9.48;40.32
75372;HTU21D;63956;52.006;5.878;2023-02-28T12:53:24;9.47;39.63
75372;HTU21D;63956;52.006;5.878;2023-02-28T12:56:07;9.45;40.87
75372;HTU21D;63956;52.006;5.878;2023-02-28T12:58:40;9.46;40.02
75372;HTU21D;63956;52.006;5.878;2023-02-28T13:01:33;9.45;40.36
75372;HTU21D;63956;52.006;5.878;2023-02-28T13:07:22;9.49;39.23
75372;HTU21D;63956;52.006;5.878;2023-02-28T13:10:00;9.52;39.81
75372;HTU21D;63956;52.006;5.878;2023-02-28T13:12:35;9.56;39.75
75372;HTU21D;63956;52.006;5.878;2023-02-28T13:15:08;9.60;39.39
75372;HTU21D;63956;52.006;5.878;2023-02-28T13:17:41;9.62;39.76
75372;HTU21D;63956;52.006;5.878;2023-02-28T13:20:18;9.61;39.18
75372;HTU21D;63956;52.006;5.878;2023-02-28T13:22:51;9.60;38.79
75372;HTU21D;63956;52.006;5.878;2023-02-28T13:25:51;9.62;39.49
75372;HTU21D;63956;52.006;5.878;2023-02-28T13:28:59;9.66;39.51
75372;HTU21D;63956;52.006;5.878;2023-02-28T13:31:30;9.66;38.97
75372;HTU21D;63956;52.006;5.878;2023-02-28T13:34:14;9.65;39.65
75372;HTU21D;63956;52.006;5.878;2023-02-28T13:36:43;9.72;39.55
75372;HTU21D;63956;52.006;5.878;2023-02-28T13:41:56;9.91;38.66
75372;HTU21D;63956;52.006;5.878;2023-02-28T13:44:29;9.98;39.18
75372;HTU21D;63956;52.006;5.878;2023-02-28T13:47:22;10.10;38.99
75372;HTU21D;63956;52.006;5.878;2023-02-28T13:49:53;10.21;38.93
75372;HTU21D;63956;52.006;5.878;2023-02-28T13:52:23;10.31;38.48
75372;HTU21D;63956;52.006;5.878;2023-02-28T13:55:23;10.42;38.03
75372;HTU21D;63956;52.006;5.878;2023-02-28T13:58:09;10.50;38.06
75372;HTU21D;63956;52.006;5.878;2023-02-28T14:00:51;10.60;38.63
75372;HTU21D;63956;52.006;5.878;2023-02-28T14:03:42;10.56;38.06
75372;HTU21D;63956;52.006;5.878;2023-02-28T14:06:18;10.54;37.88
75372;HTU21D;63956;52.006;5.878;2023-02-28T14:08:55;10.58;38.13
75372;HTU21D;63956;52.006;5.878;2023-02-28T14:11:32;10.64;38.17
75372;HTU21D;63956;52.006;5.878;2023-02-28T14:14:02;10.66;38.02
75372;HTU21D;63956;52.006;5.878;2023-02-28T14:16:50;10.71;38.32
75372;HTU21D;63956;52.006;5.878;2023-02-28T14:19:23;10.75;37.33
75372;HTU21D;63956;52.006;5.878;2023-02-28T14:22:02;10.74;37.66
75372;HTU21D;63956;52.006;5.878;2023-02-28T14:24:59;10.72;38.04
75372;HTU21D;63956;52.006;5.878;2023-02-28T14:27:40;10.66;38.28
75372;HTU21D;63956;52.006;5.878;2023-02-28T14:30:37;10.70;38.52
75372;HTU21D;63956;52.006;5.878;2023-02-28T14:33:26;10.72;38.43
75372;HTU21D;63956;52.006;5.878;2023-02-28T14:36:09;10.71;38.08
75372;HTU21D;63956;52.006;5.878;2023-02-28T14:38:42;10.66;37.85
75372;HTU21D;63956;52.006;5.878;2023-02-28T14:41:23;10.62;37.61
75372;HTU21D;63956;52.006;5.878;2023-02-28T14:43:57;10.57;37.21
75372;HTU21D;63956;52.006;5.878;2023-02-28T14:46:35;10.55;36.33
75372;HTU21D;63956;52.006;5.878;2023-02-28T14:49:13;10.48;37.32
75372;HTU21D;63956;52.006;5.878;2023-02-28T14:51:44;10.43;37.80
75372;HTU21D;63956;52.006;5.878;2023-02-28T14:54:15;10.40;37.13
75372;HTU21D;63956;52.006;5.878;2023-02-28T14:56:49;10.40;37.64
75372;HTU21D;63956;52.006;5.878;2023-02-28T14:59:25;10.40;37.25
75372;HTU21D;63956;52.006;5.878;2023-02-28T15:02:14;10.37;37.95
75372;HTU21D;63956;52.006;5.878;2023-02-28T15:04:53;10.30;37.64
75372;HTU21D;63956;52.006;5.878;2023-02-28T15:07:23;10.25;37.28
75372;HTU21D;63956;52.006;5.878;2023-02-28T15:10:17;10.22;37.16
75372;HTU21D;63956;52.006;5.878;2023-02-28T15:12:51;10.16;37.40
75372;HTU21D;63956;52.006;5.878;2023-02-28T15:15:24;10.10;37.25
75372;HTU21D;63956;52.006;5.878;2023-02-28T15:17:56;10.03;37.02
75372;HTU21D;63956;52.006;5.878;2023-02-28T15:20:32;9.92;37.69
75372;HTU21D;63956;52.006;5.878;2023-02-28T15:23:02;9.85;37.55
75372;HTU21D;63956;52.006;5.878;2023-02-28T15:25:31;9.83;37.84
75372;HTU21D;63956;52.006;5.878;2023-02-28T15:28:00;9.80;38.08
75372;HTU21D;63956;52.006;5.878;2023-02-28T15:30:30;9.69;38.16
75372;HTU21D;63956;52.006;5.878;2023-02-28T15:33:06;9.64;37.49
75372;HTU21D;63956;52.006;5.878;2023-02-28T15:35:40;9.59;37.71
75372;HTU21D;63956;52.006;5.878;2023-02-28T15:38:15;9.52;37.69
75372;HTU21D;63956;52.006;5.878;2023-02-28T15:40:49;9.45;37.91
75372;HTU21D;63956;52.006;5.878;2023-02-28T15:43:24;9.38;38.02
75372;HTU21D;63956;52.006;5.878;2023-02-28T15:45:57;9.32;38.17
75372;HTU21D;63956;52.006;5.878;2023-02-28T15:48:29;9.29;38.43
75372;HTU21D;63956;52.006;5.878;2023-02-28T15:51:07;9.26;37.56
75372;HTU21D;63956;52.006;5.878;2023-02-28T15:53:47;9.16;37.66
75372;HTU21D;63956;52.006;5.878;2023-02-28T15:56:23;9.11;37.73
75372;HTU21D;63956;52.006;5.878;2023-02-28T15:58:54;9.03;37.72
75372;HTU21D;63956;52.006;5.878;2023-02-28T16:01:25;8.98;38.03
75372;HTU21D;63956;52.006;5.878;2023-02-28T16:03:59;8.94;38.36
75372;HTU21D;63956;52.006;5.878;2023-02-28T16:06:41;8.93;38.85
75372;HTU21D;63956;52.006;5.878;2023-02-28T16:09:13;8.90;38.95
75372;HTU21D;63956;52.006;5.878;2023-02-28T16:11:44;8.85;39.17
75372;HTU21D;63956;52.006;5.878;2023-02-28T16:14:16;8.75;39.32
75372;HTU21D;63956;52.006;5.878;2023-02-28T16:16:47;8.70;39.22
75372;HTU21D;63956;52.006;5.878;2023-02-28T16:19:18;8.65;39.22
75372;HTU21D;63956;52.006;5.878;2023-02-28T16:21:50;8.60;39.88
75372;HTU21D;63956;52.006;5.878;2023-02-28T16:24:19;8.57;40.17
75372;HTU21D;63956;52.006;5.878;2023-02-28T16:26:50;8.52;40.28
75372;HTU21D;63956;52.006;5.878;2023-02-28T16:29:24;8.47;40.65